Manassa, Colorado
Current Conditions -  °F | °C
As of 1:52 AM on Monday 24 Nov 2014 (Local Time) from KALS Reporting Station
Clear Clear  
Wind Chill:   Ceiling: Unl
Heat Index:   Visibility: 10mi
Dew Point:   Wind: 5mph
Humidity: 73%   Direction: 270°W
Pressure: 30"   Gusts: NA
Location:  37.17°N, 105.94°W
Report Text: KALS 240852Z AUTO 27004KT 10SM CLR M13/M17 A3000 RMK AO2 SLP187 T11331172 51002
Loading
Personal Weather Stations






























Interactive Weather Map New forecast layout! Learn more

10-Day Weather Forecast

Advertisements
Track Severe Weather on mobile